createdAt,value
2023-12-09T00:01:42.199Z,85.11
2023-12-09T00:04:09.990Z,85.07
2023-12-09T00:06:38.262Z,85.08
2023-12-09T00:09:06.271Z,84.75
2023-12-09T00:11:35.677Z,84.38
2023-12-09T00:14:05.472Z,84.85
2023-12-09T00:16:33.373Z,84.37
2023-12-09T00:19:01.407Z,84.42
2023-12-09T00:21:29.601Z,84.14
2023-12-09T00:23:58.750Z,84.44
2023-12-09T00:26:26.591Z,84.04
2023-12-09T00:28:56.038Z,84.33
2023-12-09T00:31:23.790Z,84.08
2023-12-09T00:33:51.596Z,83.94
2023-12-09T00:36:19.476Z,84.08
2023-12-09T00:38:47.268Z,83.92
2023-12-09T00:41:15.246Z,83.75
2023-12-09T00:43:43.051Z,84.31
2023-12-09T00:46:12.287Z,84.40
2023-12-09T00:48:40.278Z,84.13
2023-12-09T00:51:08.738Z,84.67
2023-12-09T00:53:36.629Z,84.79
2023-12-09T00:56:04.603Z,84.45
2023-12-09T00:58:32.375Z,84.45
2023-12-09T01:01:00.250Z,84.51
2023-12-09T01:03:29.583Z,84.41
2023-12-09T01:05:57.488Z,84.42
2023-12-09T01:08:26.926Z,84.74
2023-12-09T01:10:54.949Z,84.49
2023-12-09T01:13:22.744Z,84.92
2023-12-09T01:15:50.513Z,84.83
2023-12-09T01:18:18.385Z,84.02
2023-12-09T01:20:47.555Z,84.13
2023-12-09T01:23:15.305Z,83.95
2023-12-09T01:25:43.080Z,84.07
2023-12-09T01:28:10.856Z,84.31
2023-12-09T01:30:38.707Z,84.24
2023-12-09T01:33:06.825Z,83.72
2023-12-09T01:35:34.824Z,83.81
2023-12-09T01:38:04.482Z,83.68
2023-12-09T01:40:32.291Z,83.64
2023-12-09T01:43:00.052Z,83.61
2023-12-09T01:45:30.246Z,83.13
2023-12-09T01:47:58.131Z,83.36
2023-12-09T01:50:26.074Z,83.30
2023-12-09T01:52:54.168Z,82.64
2023-12-09T01:55:23.554Z,82.84
2023-12-09T01:57:52.564Z,82.95
2023-12-09T02:00:22.299Z,83.21
2023-12-09T02:02:50.633Z,83.09
2023-12-09T02:05:18.891Z,83.13
2023-12-09T02:07:46.717Z,82.60
2023-12-09T02:10:14.537Z,82.60
2023-12-09T02:12:51.700Z,82.77
2023-12-09T02:15:26.340Z,82.62
2023-12-09T02:17:58.484Z,82.72
2023-12-09T02:20:27.175Z,82.88
2023-12-09T02:23:05.909Z,82.96
2023-12-09T02:25:33.771Z,83.17
2023-12-09T02:28:04.853Z,83.00
2023-12-09T02:30:41.341Z,83.52
2023-12-09T02:33:12.453Z,83.50
2023-12-09T02:35:45.178Z,83.66
2023-12-09T02:38:16.871Z,84.19
2023-12-09T02:40:45.327Z,84.61
2023-12-09T02:43:13.537Z,84.35
2023-12-09T02:45:41.842Z,84.05
2023-12-09T02:48:09.899Z,84.66
2023-12-09T02:50:38.026Z,84.52
2023-12-09T02:53:06.025Z,84.33
2023-12-09T02:55:35.110Z,83.84
2023-12-09T02:58:02.862Z,83.82
2023-12-09T03:00:30.661Z,84.25
2023-12-09T03:02:58.596Z,84.35
2023-12-09T03:05:26.572Z,84.18
2023-12-09T03:07:54.348Z,84.17
2023-12-09T03:10:22.091Z,84.15
2023-12-09T03:12:51.154Z,83.97
2023-12-09T03:15:19.043Z,84.41
2023-12-09T03:17:47.027Z,84.21
2023-12-09T03:20:14.914Z,83.42
2023-12-09T03:22:42.644Z,83.36
2023-12-09T03:25:10.743Z,83.54
2023-12-09T03:27:38.532Z,83.75
2023-12-09T03:30:09.627Z,83.54
2023-12-09T03:32:40.307Z,83.05
2023-12-09T03:35:11.032Z,83.48
2023-12-09T03:37:38.847Z,83.38
2023-12-09T03:40:07.873Z,83.05
2023-12-09T03:42:35.701Z,83.52
2023-12-09T03:45:03.592Z,83.18
2023-12-09T03:47:32.724Z,83.03
2023-12-09T03:50:00.519Z,82.92
2023-12-09T03:52:28.928Z,83.15
2023-12-09T03:54:56.950Z,82.75
2023-12-09T03:57:24.930Z,82.79
2023-12-09T03:59:53.004Z,83.00
2023-12-09T04:02:21.056Z,82.66
2023-12-09T04:04:50.201Z,82.78
2023-12-09T04:07:18.291Z,82.54
2023-12-09T04:09:46.011Z,82.78
2023-12-09T04:12:13.822Z,82.80
2023-12-09T04:14:42.431Z,82.57
2023-12-09T04:17:10.135Z,82.69
2023-12-09T04:19:38.123Z,82.77
2023-12-09T04:22:07.789Z,82.39
2023-12-09T04:24:35.661Z,82.79
2023-12-09T04:27:03.508Z,82.49
2023-12-09T04:29:31.432Z,82.48
2023-12-09T04:32:00.166Z,83.11
2023-12-09T04:34:28.112Z,82.33
2023-12-09T04:36:56.016Z,82.41
2023-12-09T04:39:25.090Z,82.19
2023-12-09T04:41:52.888Z,82.55
2023-12-09T04:44:20.673Z,82.98
2023-12-09T04:46:48.426Z,82.95
2023-12-09T04:49:16.341Z,83.00
2023-12-09T04:51:44.254Z,82.93
2023-12-09T04:54:12.098Z,83.25
2023-12-09T04:56:41.172Z,83.60
2023-12-09T04:59:09.901Z,83.32
2023-12-09T05:01:37.662Z,83.43
2023-12-09T05:04:05.973Z,83.53
2023-12-09T05:06:33.773Z,83.61
2023-12-09T05:09:01.638Z,83.29
2023-12-09T05:11:29.366Z,83.50
2023-12-09T05:13:58.496Z,82.69
2023-12-09T05:16:26.980Z,82.78
2023-12-09T05:18:55.199Z,83.20
2023-12-09T05:21:23.309Z,83.05
2023-12-09T05:24:03.939Z,83.40
2023-12-09T05:26:31.731Z,83.47
2023-12-09T05:29:00.901Z,83.44
2023-12-09T05:31:28.632Z,84.03
2023-12-09T05:33:56.644Z,83.65
2023-12-09T05:36:24.464Z,83.85
2023-12-09T05:38:52.210Z,83.28
2023-12-09T05:41:19.929Z,83.30
2023-12-09T05:43:47.661Z,83.29
2023-12-09T05:46:20.674Z,83.54
2023-12-09T05:48:49.018Z,83.40
2023-12-09T05:51:17.077Z,83.57
2023-12-09T05:53:44.955Z,83.89
2023-12-09T05:56:13.730Z,83.77
2023-12-09T05:58:41.660Z,83.92
2023-12-09T06:01:10.256Z,84.06
2023-12-09T06:03:39.721Z,83.85
2023-12-09T06:06:06.946Z,84.21
2023-12-09T06:08:34.996Z,84.08
2023-12-09T06:11:02.887Z,83.80
2023-12-09T06:13:31.253Z,84.17
2023-12-09T06:15:58.968Z,84.24
2023-12-09T06:18:27.213Z,84.03
2023-12-09T06:20:56.384Z,84.43
2023-12-09T06:23:24.148Z,83.88
2023-12-09T06:25:51.907Z,84.18
2023-12-09T06:28:19.645Z,84.21
2023-12-09T06:30:47.645Z,84.65
2023-12-09T06:33:16.917Z,84.25
2023-12-09T06:35:47.751Z,83.92
2023-12-09T06:38:16.829Z,83.55
2023-12-09T06:40:44.888Z,83.52
2023-12-09T06:43:12.611Z,83.29
2023-12-09T06:45:43.433Z,83.34
2023-12-09T06:48:11.408Z,82.78
2023-12-09T06:50:39.199Z,82.69
2023-12-09T06:53:07.759Z,82.15
2023-12-09T06:55:36.912Z,82.03
2023-12-09T06:58:04.667Z,82.31
2023-12-09T07:00:32.494Z,82.44
2023-12-09T07:03:01.124Z,82.50
2023-12-09T07:05:29.143Z,82.65
2023-12-09T07:07:56.919Z,82.81
2023-12-09T07:10:24.647Z,82.94
2023-12-09T07:12:53.838Z,82.88
2023-12-09T07:15:21.693Z,82.91
2023-12-09T07:17:49.640Z,83.03
2023-12-09T07:20:17.519Z,82.89
2023-12-09T07:22:45.485Z,83.38
2023-12-09T07:25:13.371Z,83.28
2023-12-09T07:27:41.148Z,83.33
2023-12-09T07:30:11.179Z,82.92
2023-12-09T07:32:39.050Z,83.40
2023-12-09T07:35:07.572Z,83.59
2023-12-09T07:37:35.319Z,83.42
2023-12-09T07:40:05.841Z,83.37
2023-12-09T07:42:33.730Z,83.48
2023-12-09T07:45:01.532Z,83.67
2023-12-09T07:47:31.081Z,83.13
2023-12-09T07:49:58.852Z,83.00
2023-12-09T07:52:27.036Z,82.90
2023-12-09T07:54:55.241Z,82.41
2023-12-09T07:57:23.100Z,82.37
2023-12-09T07:59:50.950Z,81.96
2023-12-09T08:02:18.762Z,81.90
2023-12-09T08:04:47.850Z,81.86
2023-12-09T08:07:15.589Z,82.04
2023-12-09T08:09:43.464Z,81.88
2023-12-09T08:12:12.927Z,82.49
2023-12-09T08:14:40.770Z,82.29
2023-12-09T08:17:08.490Z,81.79
2023-12-09T08:19:36.360Z,80.77
2023-12-09T08:22:05.859Z,79.89
2023-12-09T08:24:33.662Z,79.36
2023-12-09T08:27:01.464Z,79.89
2023-12-09T08:29:29.957Z,79.62
2023-12-09T08:31:58.703Z,79.25
2023-12-09T08:34:26.672Z,78.19
2023-12-09T08:36:54.539Z,79.55
2023-12-09T08:39:24.462Z,78.90
2023-12-09T08:41:52.262Z,78.48
2023-12-09T08:44:20.041Z,78.39
2023-12-09T08:46:47.780Z,76.17
2023-12-09T08:49:15.651Z,72.85
2023-12-09T08:51:46.876Z,72.13
2023-12-09T08:54:15.582Z,71.96
2023-12-09T08:56:44.691Z,70.24
2023-12-09T08:59:12.613Z,68.06
2023-12-09T09:01:40.821Z,67.72
2023-12-09T09:04:08.732Z,66.72
2023-12-09T09:06:36.559Z,64.63
2023-12-09T09:09:05.566Z,61.66
2023-12-09T09:11:33.330Z,54.84
2023-12-09T09:14:02.427Z,46.94
2023-12-09T09:16:30.187Z,41.64
2023-12-09T09:18:58.390Z,38.26
2023-12-09T09:21:26.300Z,39.25
2023-12-09T09:23:54.093Z,41.36
2023-12-09T09:26:22.937Z,48.65
2023-12-09T09:28:50.817Z,55.49
2023-12-09T09:31:20.007Z,57.78
2023-12-09T09:33:47.916Z,62.55
2023-12-09T09:36:18.093Z,65.06
2023-12-09T09:38:46.022Z,65.75
2023-12-09T09:41:19.500Z,67.90
2023-12-09T09:43:49.678Z,69.00
2023-12-09T09:46:21.152Z,71.03
2023-12-09T09:48:54.223Z,71.66
2023-12-09T09:51:27.850Z,71.65
2023-12-09T09:54:07.457Z,71.94
2023-12-09T09:56:36.433Z,73.12
2023-12-09T09:59:08.000Z,73.77
2023-12-09T10:01:38.421Z,73.56
2023-12-09T10:04:07.911Z,73.33
2023-12-09T10:06:37.349Z,74.10
2023-12-09T10:09:05.737Z,73.45
2023-12-09T10:11:34.002Z,74.43
2023-12-09T10:14:01.791Z,75.12
2023-12-09T10:16:29.524Z,75.94
2023-12-09T10:18:58.698Z,75.96
2023-12-09T10:21:27.915Z,75.73
2023-12-09T10:23:55.648Z,75.77
2023-12-09T10:26:23.847Z,75.71
2023-12-09T10:28:52.014Z,75.62
2023-12-09T10:31:20.026Z,75.22
2023-12-09T10:33:48.068Z,75.23
2023-12-09T10:36:16.251Z,75.18
2023-12-09T10:38:45.556Z,75.33
2023-12-09T10:41:14.777Z,74.48
2023-12-09T10:43:42.965Z,74.68
2023-12-09T10:46:10.930Z,73.96
2023-12-09T10:48:38.944Z,72.84
2023-12-09T10:51:06.975Z,71.00
2023-12-09T10:53:34.738Z,69.67
2023-12-09T10:56:04.551Z,68.35
2023-12-09T10:58:35.110Z,68.33
2023-12-09T11:01:05.164Z,69.23
2023-12-09T11:03:34.445Z,68.89
2023-12-09T11:06:07.088Z,68.02
2023-12-09T11:08:37.924Z,67.30
2023-12-09T11:11:09.288Z,66.63
2023-12-09T11:13:37.575Z,64.82
2023-12-09T11:16:13.305Z,64.46
2023-12-09T11:18:50.259Z,63.01
2023-12-09T11:21:19.039Z,63.01
2023-12-09T11:23:50.105Z,64.11
2023-12-09T11:26:20.868Z,65.68
2023-12-09T11:29:05.530Z,66.27
2023-12-09T11:31:35.194Z,67.46
2023-12-09T11:34:03.526Z,68.12
2023-12-09T11:36:36.766Z,67.36
2023-12-09T11:39:07.777Z,66.69
2023-12-09T11:41:37.146Z,65.21
2023-12-09T11:44:05.867Z,63.82
2023-12-09T11:46:34.431Z,64.83
2023-12-09T11:49:04.138Z,64.85
2023-12-09T11:51:33.642Z,65.55
2023-12-09T11:54:02.916Z,65.53
2023-12-09T11:56:30.785Z,65.47
2023-12-09T11:59:00.623Z,66.77
2023-12-09T12:01:30.431Z,67.14
2023-12-09T12:03:58.334Z,67.04
2023-12-09T12:06:26.348Z,67.25
2023-12-09T12:08:55.738Z,68.90
2023-12-09T12:11:25.601Z,68.61
2023-12-09T12:13:54.727Z,66.95
2023-12-09T12:16:24.389Z,66.35
2023-12-09T12:18:52.265Z,66.79
2023-12-09T12:21:20.819Z,67.02
2023-12-09T12:23:52.792Z,66.68
2023-12-09T12:26:20.851Z,64.91
2023-12-09T12:28:49.904Z,64.79
2023-12-09T12:31:17.913Z,65.90
2023-12-09T12:33:47.284Z,65.65
2023-12-09T12:36:15.458Z,65.11
2023-12-09T12:38:43.357Z,65.80
2023-12-09T12:41:11.189Z,65.94
2023-12-09T12:43:39.048Z,67.32
2023-12-09T12:46:08.026Z,68.72
2023-12-09T12:48:35.981Z,69.93
2023-12-09T12:51:05.309Z,70.66
2023-12-09T12:53:33.306Z,70.22
2023-12-09T12:56:01.208Z,69.69
2023-12-09T12:58:30.588Z,70.81
2023-12-09T13:00:58.515Z,70.64
2023-12-09T13:03:26.776Z,70.66
2023-12-09T13:05:54.722Z,70.13
2023-12-09T13:08:23.899Z,69.18
2023-12-09T13:10:51.724Z,69.32
2023-12-09T13:13:19.559Z,69.58
2023-12-09T13:15:47.533Z,70.64
2023-12-09T13:18:15.713Z,70.29
2023-12-09T13:20:46.603Z,70.97
2023-12-09T13:23:14.631Z,72.51
2023-12-09T13:25:44.124Z,72.12
2023-12-09T13:28:12.086Z,73.63
2023-12-09T13:30:40.228Z,72.88
2023-12-09T13:33:08.181Z,73.25
2023-12-09T13:35:36.136Z,74.16
2023-12-09T13:38:05.117Z,74.63
2023-12-09T13:40:33.060Z,74.21
2023-12-09T13:43:02.252Z,74.56
2023-12-09T13:45:36.888Z,74.39
2023-12-09T13:48:05.941Z,75.03
2023-12-09T13:50:35.627Z,74.67
2023-12-09T13:53:04.476Z,74.89
2023-12-09T13:55:32.291Z,75.32
2023-12-09T13:58:00.128Z,75.51
2023-12-09T14:00:29.371Z,75.41
2023-12-09T14:02:58.301Z,75.60
2023-12-09T14:05:26.399Z,75.65
2023-12-09T14:07:55.295Z,75.29
2023-12-09T14:10:23.655Z,75.57
2023-12-09T14:12:51.563Z,75.35
2023-12-09T14:15:19.489Z,75.02
2023-12-09T14:17:49.113Z,75.07
2023-12-09T14:20:17.426Z,75.15
2023-12-09T14:22:46.662Z,75.22
2023-12-09T14:25:15.051Z,75.35
2023-12-09T14:27:43.077Z,75.43
2023-12-09T14:30:12.548Z,75.81
2023-12-09T14:32:44.914Z,75.55
2023-12-09T14:35:15.369Z,76.10
2023-12-09T14:37:43.939Z,76.19
2023-12-09T14:40:12.430Z,76.15
2023-12-09T14:42:40.272Z,76.53
2023-12-09T14:45:10.554Z,76.66
2023-12-09T14:47:39.166Z,77.44
2023-12-09T14:50:10.024Z,76.99
2023-12-09T14:52:39.384Z,77.29
2023-12-09T14:55:08.208Z,77.19
2023-12-09T14:57:36.119Z,76.94
2023-12-09T15:00:04.719Z,77.18
2023-12-09T15:02:32.573Z,77.44
2023-12-09T15:05:00.463Z,77.31
2023-12-09T15:07:28.365Z,76.97
2023-12-09T15:09:57.650Z,76.84
2023-12-09T15:12:27.933Z,76.99
2023-12-09T15:14:57.905Z,76.79
2023-12-09T15:17:26.350Z,76.80
2023-12-09T15:19:54.398Z,76.35
2023-12-09T15:22:22.765Z,76.41
2023-12-09T15:24:50.609Z,76.14
2023-12-09T15:27:19.995Z,76.16
2023-12-09T15:29:47.920Z,76.16
2023-12-09T15:32:15.865Z,76.32
2023-12-09T15:34:43.818Z,76.23
2023-12-09T15:37:12.073Z,76.43
2023-12-09T15:39:40.518Z,76.10
2023-12-09T15:42:08.814Z,75.72
2023-12-09T15:44:38.082Z,76.13
2023-12-09T15:47:07.549Z,76.05
2023-12-09T15:49:35.648Z,76.10
2023-12-09T15:52:03.681Z,76.04
2023-12-09T15:54:31.566Z,76.19
2023-12-09T15:57:03.281Z,76.11
2023-12-09T15:59:31.554Z,75.93
2023-12-09T16:02:00.843Z,75.85
2023-12-09T16:04:28.812Z,75.48
2023-12-09T16:06:56.758Z,75.54
2023-12-09T16:09:24.640Z,75.51
2023-12-09T16:11:52.504Z,75.31
2023-12-09T16:14:20.389Z,75.24
2023-12-09T16:16:48.218Z,75.08
2023-12-09T16:19:17.465Z,75.07
2023-12-09T16:21:45.457Z,74.89
2023-12-09T16:24:13.349Z,75.18
2023-12-09T16:26:41.846Z,75.28
2023-12-09T16:29:10.476Z,75.46
2023-12-09T16:31:39.740Z,75.75
2023-12-09T16:34:07.916Z,75.55
2023-12-09T16:36:37.200Z,75.30
2023-12-09T16:39:05.225Z,75.49
2023-12-09T16:41:33.165Z,75.22
2023-12-09T16:44:01.118Z,75.11
2023-12-09T16:46:29.682Z,75.15
2023-12-09T16:48:57.805Z,74.88
2023-12-09T16:51:25.754Z,75.07
2023-12-09T16:53:54.968Z,75.29
2023-12-09T16:56:22.878Z,76.25
2023-12-09T16:58:50.708Z,76.40
2023-12-09T17:01:18.635Z,77.30
2023-12-09T17:03:47.342Z,77.76
2023-12-09T17:06:15.296Z,78.86
2023-12-09T17:08:43.208Z,79.13
2023-12-09T17:11:12.418Z,79.86
2023-12-09T17:13:40.244Z,81.55
2023-12-09T17:16:08.950Z,81.75
2023-12-09T17:18:36.970Z,82.43
2023-12-09T17:21:04.951Z,82.51
2023-12-09T17:23:33.451Z,82.94
2023-12-09T17:26:01.358Z,83.15
2023-12-09T17:28:30.870Z,83.62
2023-12-09T17:30:58.720Z,84.64
2023-12-09T17:33:26.614Z,85.16
2023-12-09T17:35:54.658Z,85.30
2023-12-09T17:38:22.757Z,85.40
2023-12-09T17:40:50.620Z,85.43
2023-12-09T17:43:19.793Z,85.85
2023-12-09T17:45:51.299Z,86.55
2023-12-09T17:48:20.698Z,86.16
2023-12-09T17:50:48.648Z,86.30
2023-12-09T17:53:20.503Z,86.05
2023-12-09T17:55:48.857Z,86.09
2023-12-09T17:58:17.103Z,86.51
2023-12-09T18:00:45.211Z,86.62
2023-12-09T18:03:14.625Z,86.13
2023-12-09T18:05:42.879Z,86.15
2023-12-09T18:08:11.108Z,86.56
2023-12-09T18:10:38.945Z,86.06
2023-12-09T18:13:06.746Z,86.45
2023-12-09T18:15:34.595Z,86.33
2023-12-09T18:18:02.479Z,85.92
2023-12-09T18:20:31.697Z,86.47
2023-12-09T18:23:00.601Z,86.48
2023-12-09T18:25:30.818Z,86.21
2023-12-09T18:27:58.818Z,87.09
2023-12-09T18:30:27.003Z,86.05
2023-12-09T18:32:56.853Z,86.84
2023-12-09T18:35:24.849Z,86.26
2023-12-09T18:37:54.219Z,85.59
2023-12-09T18:40:23.926Z,86.01
2023-12-09T18:42:52.514Z,85.91
2023-12-09T18:45:20.725Z,85.71
2023-12-09T18:47:48.721Z,85.50
2023-12-09T18:50:16.608Z,85.22
2023-12-09T18:52:44.446Z,85.77
2023-12-09T18:55:13.615Z,85.22
2023-12-09T18:57:41.779Z,85.21
2023-12-09T19:00:10.368Z,85.17
2023-12-09T19:02:38.299Z,84.32
2023-12-09T19:05:06.724Z,84.81
2023-12-09T19:07:34.901Z,84.10
2023-12-09T19:10:06.151Z,84.12
2023-12-09T19:12:35.956Z,84.66
2023-12-09T19:15:03.917Z,84.13
2023-12-09T19:17:32.410Z,83.36
2023-12-09T19:20:00.643Z,83.58
2023-12-09T19:22:28.791Z,84.55
2023-12-09T19:24:56.779Z,84.32
2023-12-09T19:27:24.876Z,83.95
2023-12-09T19:29:54.081Z,84.60
2023-12-09T19:32:21.991Z,84.25
2023-12-09T19:34:49.982Z,84.16
2023-12-09T19:37:17.902Z,84.64
2023-12-09T19:39:45.818Z,85.27
2023-12-09T19:42:13.757Z,85.91
2023-12-09T19:44:41.630Z,84.81
2023-12-09T19:47:11.359Z,85.91
2023-12-09T19:49:39.356Z,85.69
2023-12-09T19:52:07.262Z,85.84
2023-12-09T19:54:35.186Z,86.19
2023-12-09T19:57:03.078Z,86.23
2023-12-09T19:59:32.110Z,86.55
2023-12-09T20:01:59.907Z,86.59
2023-12-09T20:04:29.255Z,86.77
2023-12-09T20:06:57.419Z,86.47
2023-12-09T20:09:25.597Z,86.40
2023-12-09T20:11:53.506Z,87.24
2023-12-09T20:14:21.369Z,87.22
2023-12-09T20:16:50.370Z,87.85
2023-12-09T20:19:18.372Z,87.67
2023-12-09T20:21:50.061Z,88.22
2023-12-09T20:24:17.944Z,88.19
2023-12-09T20:26:45.857Z,88.44
2023-12-09T20:29:13.904Z,88.33
2023-12-09T20:31:43.421Z,88.20
2023-12-09T20:34:12.168Z,88.46
2023-12-09T20:36:40.392Z,88.63
2023-12-09T20:39:11.951Z,89.15
2023-12-09T20:41:39.972Z,88.61
2023-12-09T20:44:07.828Z,88.90
2023-12-09T20:46:35.723Z,88.70
2023-12-09T20:49:03.630Z,88.90
2023-12-09T20:51:31.638Z,89.26
2023-12-09T20:53:59.460Z,89.32
2023-12-09T20:56:28.997Z,89.30
2023-12-09T20:58:56.954Z,89.01
2023-12-09T21:01:24.853Z,89.25
2023-12-09T21:03:52.792Z,89.14
2023-12-09T21:06:20.766Z,89.57
2023-12-09T21:08:48.653Z,89.60
2023-12-09T21:11:22.099Z,89.52
2023-12-09T21:13:51.386Z,89.61
2023-12-09T21:16:19.611Z,89.79
2023-12-09T21:18:47.522Z,89.55
2023-12-09T21:21:15.443Z,89.89
2023-12-09T21:23:43.732Z,89.64
2023-12-09T21:26:11.556Z,89.99
2023-12-09T21:28:39.423Z,90.43
2023-12-09T21:31:12.634Z,90.00
2023-12-09T21:33:40.522Z,90.01
2023-12-09T21:36:12.854Z,89.96
2023-12-09T21:38:40.907Z,90.08
2023-12-09T21:41:09.197Z,90.10
2023-12-09T21:43:38.071Z,89.94
2023-12-09T21:46:06.445Z,89.37
2023-12-09T21:48:35.741Z,89.46
2023-12-09T21:51:06.104Z,89.13
2023-12-09T21:53:33.968Z,89.39
2023-12-09T21:56:01.852Z,89.16
2023-12-09T21:58:29.796Z,88.73
2023-12-09T22:00:57.633Z,89.38
2023-12-09T22:03:25.579Z,88.78
2023-12-09T22:05:54.881Z,89.19
2023-12-09T22:08:22.753Z,89.19
2023-12-09T22:10:50.561Z,89.10
2023-12-09T22:13:18.378Z,89.17
2023-12-09T22:15:47.301Z,89.79
2023-12-09T22:18:15.388Z,89.46
2023-12-09T22:20:43.279Z,89.38
2023-12-09T22:23:12.530Z,89.53
2023-12-09T22:25:40.401Z,89.65
2023-12-09T22:28:08.281Z,89.70
2023-12-09T22:30:36.110Z,89.87
2023-12-09T22:33:04.118Z,90.35
2023-12-09T22:35:33.073Z,90.56
2023-12-09T22:38:02.459Z,90.46
2023-12-09T22:40:31.757Z,90.77
2023-12-09T22:42:59.877Z,90.91
2023-12-09T22:45:27.747Z,90.95
2023-12-09T22:47:55.789Z,90.72
2023-12-09T22:50:23.817Z,90.58
2023-12-09T22:52:51.660Z,90.96
2023-12-09T22:55:19.514Z,90.34
2023-12-09T22:57:49.068Z,90.74
2023-12-09T23:00:28.257Z,90.84
2023-12-09T23:02:56.290Z,90.75
2023-12-09T23:05:24.941Z,90.64
2023-12-09T23:07:52.752Z,90.61
2023-12-09T23:10:20.621Z,90.90
2023-12-09T23:12:50.054Z,90.92
2023-12-09T23:15:18.100Z,90.50
2023-12-09T23:17:45.960Z,90.85
2023-12-09T23:20:13.859Z,90.72
2023-12-09T23:22:41.680Z,90.47
2023-12-09T23:25:09.969Z,90.71
2023-12-09T23:27:37.807Z,90.93
2023-12-09T23:30:09.193Z,90.51
2023-12-09T23:32:37.131Z,90.34
2023-12-09T23:35:05.521Z,90.46
2023-12-09T23:37:33.892Z,90.54
2023-12-09T23:40:01.736Z,90.63
2023-12-09T23:42:29.799Z,90.75
2023-12-09T23:44:57.765Z,90.93
2023-12-09T23:47:26.960Z,90.77
2023-12-09T23:49:54.861Z,90.88
2023-12-09T23:52:23.123Z,91.02
2023-12-09T23:54:51.042Z,90.91
2023-12-09T23:57:18.939Z,90.82
2023-12-09T23:59:46.777Z,90.78
